Zanoni, Virginia
Current Conditions -  °F | °C
As of 7:15 AM on Monday 26 Jan 2015 (Local Time) from KW75 Reporting Station
Broken Clouds Broken Clouds  
Wind Chill: 38°   Ceiling: 12000
Heat Index: 38°   Visibility: 10mi
Dew Point: 36°   Wind: 0mph
Humidity: 92%   Direction: NA
Pressure: 29.76"   Gusts: NA
Location:  37.39°N, 76.49°W
Report Text: KW75 261215Z AUTO 00000KT 10SM SCT080 SCT100 BKN120 04/02 A2976 RMK AO1 T00350023
Loading
Personal Weather Stations






























Interactive Weather Map New forecast layout! Learn more

10-Day Weather Forecast

Advertisements
Track Severe Weather on mobile